createdAt,value
2019-03-24T00:00:37.692Z,7.42
2019-03-24T00:03:09.611Z,7.56
2019-03-24T00:05:41.437Z,7.84
2019-03-24T00:08:13.318Z,7.86
2019-03-24T00:10:45.305Z,7.94
2019-03-24T00:13:18.073Z,7.73
2019-03-24T00:15:50.898Z,7.67
2019-03-24T00:18:22.829Z,7.60
2019-03-24T00:20:55.136Z,7.59
2019-03-24T00:23:27.093Z,7.51
2019-03-24T00:25:59.070Z,7.68
2019-03-24T00:28:32.010Z,7.38
2019-03-24T00:31:04.177Z,7.57
2019-03-24T00:33:35.976Z,7.64
2019-03-24T00:36:08.106Z,7.61
2019-03-24T00:38:40.087Z,7.59
2019-03-24T00:41:12.075Z,7.64
2019-03-24T00:43:43.974Z,7.70
2019-03-24T00:46:15.968Z,7.50
2019-03-24T00:48:47.961Z,7.58
2019-03-24T00:51:19.821Z,7.55
2019-03-24T00:53:51.777Z,7.42
2019-03-24T00:56:23.680Z,7.58
2019-03-24T00:58:55.580Z,7.74
2019-03-24T01:01:27.361Z,7.41
2019-03-24T01:03:59.319Z,7.61
2019-03-24T01:06:31.670Z,7.56
2019-03-24T01:09:04.349Z,7.66
2019-03-24T01:11:37.405Z,7.61
2019-03-24T01:14:09.403Z,7.78
2019-03-24T01:16:41.353Z,7.50
2019-03-24T01:19:13.202Z,7.57
2019-03-24T01:21:45.095Z,7.46
2019-03-24T01:24:17.243Z,7.63
2019-03-24T01:26:49.037Z,7.65
2019-03-24T01:29:20.872Z,7.56
2019-03-24T01:31:52.903Z,7.63
2019-03-24T01:34:24.815Z,7.79
2019-03-24T01:36:56.704Z,7.86
2019-03-24T01:39:28.608Z,7.64
2019-03-24T01:42:00.807Z,7.48
2019-03-24T01:44:32.634Z,7.19
2019-03-24T01:47:04.521Z,7.36
2019-03-24T01:49:36.398Z,7.47
2019-03-24T01:52:08.473Z,7.51
2019-03-24T01:54:40.385Z,7.34
2019-03-24T01:57:12.223Z,7.39
2019-03-24T01:59:44.124Z,7.07
2019-03-24T02:02:16.271Z,7.31
2019-03-24T02:04:48.262Z,7.14
2019-03-24T02:07:20.235Z,7.34
2019-03-24T02:09:52.186Z,7.14
2019-03-24T02:12:24.143Z,7.19
2019-03-24T02:14:56.076Z,7.36
2019-03-24T02:17:28.156Z,7.27
2019-03-24T02:20:00.042Z,7.29
2019-03-24T02:22:31.864Z,7.29
2019-03-24T02:25:03.851Z,7.30
2019-03-24T02:27:35.738Z,7.15
2019-03-24T02:30:08.503Z,7.19
2019-03-24T02:32:40.488Z,7.17
2019-03-24T02:35:12.834Z,7.14
2019-03-24T02:37:44.740Z,6.72
2019-03-24T02:40:17.053Z,6.52
2019-03-24T02:42:48.927Z,6.77
2019-03-24T02:45:20.893Z,6.81
2019-03-24T02:47:53.837Z,6.97
2019-03-24T02:50:25.737Z,7.14
2019-03-24T02:52:57.633Z,7.14
2019-03-24T02:55:29.542Z,7.06
2019-03-24T02:58:01.354Z,6.87
2019-03-24T03:00:33.363Z,6.77
2019-03-24T03:03:05.387Z,6.84
2019-03-24T03:05:37.383Z,6.90
2019-03-24T03:08:10.608Z,7.00
2019-03-24T03:10:42.626Z,7.01
2019-03-24T03:13:14.637Z,6.97
2019-03-24T03:15:46.588Z,6.91
2019-03-24T03:18:19.363Z,7.06
2019-03-24T03:20:51.282Z,6.87
2019-03-24T03:23:23.246Z,5.77
2019-03-24T03:25:55.195Z,5.49
2019-03-24T03:28:27.175Z,5.29
2019-03-24T03:30:59.064Z,5.22
2019-03-24T03:33:30.879Z,5.05
2019-03-24T03:36:03.016Z,4.82
2019-03-24T03:38:34.834Z,4.82
2019-03-24T03:41:07.166Z,4.90
2019-03-24T03:43:39.150Z,5.17
2019-03-24T03:46:11.072Z,4.80
2019-03-24T03:48:42.902Z,5.23
2019-03-24T03:51:14.966Z,5.50
2019-03-24T03:53:46.764Z,5.71
2019-03-24T03:56:18.776Z,5.69
2019-03-24T03:58:50.610Z,5.96
2019-03-24T04:01:22.486Z,5.79
2019-03-24T04:03:54.326Z,4.81
2019-03-24T04:06:26.178Z,4.70
2019-03-24T04:08:58.155Z,5.37
2019-03-24T04:11:30.083Z,5.54
2019-03-24T04:14:02.112Z,5.48
2019-03-24T04:16:33.967Z,5.96
2019-03-24T04:19:05.950Z,5.91
2019-03-24T04:21:37.907Z,6.23
2019-03-24T04:24:09.729Z,5.84
2019-03-24T04:26:41.642Z,6.11
2019-03-24T04:29:13.661Z,5.79
2019-03-24T04:31:45.663Z,5.97
2019-03-24T04:34:17.604Z,6.12
2019-03-24T04:36:49.552Z,5.90
2019-03-24T04:39:21.450Z,6.09
2019-03-24T04:41:53.648Z,6.20
2019-03-24T04:44:25.476Z,6.21
2019-03-24T04:46:57.569Z,6.17
2019-03-24T04:49:29.532Z,6.30
2019-03-24T04:52:02.571Z,5.68
2019-03-24T04:54:34.533Z,5.81
2019-03-24T04:57:06.483Z,6.23
2019-03-24T04:59:38.394Z,6.22
2019-03-24T05:02:10.320Z,6.15
2019-03-24T05:04:42.194Z,6.20
2019-03-24T05:07:14.033Z,5.79
2019-03-24T05:09:46.179Z,5.95
2019-03-24T05:12:18.246Z,5.82
2019-03-24T05:14:50.151Z,5.88
2019-03-24T05:17:27.078Z,5.82
2019-03-24T05:19:55.776Z,5.86
2019-03-24T05:22:27.597Z,5.56
2019-03-24T05:24:59.544Z,5.49
2019-03-24T05:27:31.346Z,5.68
2019-03-24T05:30:03.256Z,5.68
2019-03-24T05:32:35.104Z,4.63
2019-03-24T05:35:07.526Z,4.88
2019-03-24T05:37:39.514Z,5.37
2019-03-24T05:40:11.699Z,5.41
2019-03-24T05:42:43.851Z,5.28
2019-03-24T05:45:16.259Z,4.68
2019-03-24T05:47:48.084Z,5.07
2019-03-24T05:50:19.916Z,5.22
2019-03-24T05:52:51.841Z,5.93
2019-03-24T05:55:23.670Z,5.20
2019-03-24T05:57:55.583Z,5.45
2019-03-24T06:00:27.600Z,5.24
2019-03-24T06:02:59.597Z,5.36
2019-03-24T06:05:31.684Z,5.84
2019-03-24T06:08:03.495Z,6.03
2019-03-24T06:10:35.560Z,6.32
2019-03-24T06:13:07.544Z,5.61
2019-03-24T06:15:39.428Z,5.73
2019-03-24T06:18:11.376Z,6.32
2019-03-24T06:20:43.261Z,6.85
2019-03-24T06:23:15.190Z,6.93
2019-03-24T06:25:47.250Z,7.31
2019-03-24T06:28:19.138Z,6.89
2019-03-24T06:30:51.106Z,7.35
2019-03-24T06:33:22.940Z,7.53
2019-03-24T06:35:54.877Z,8.11
2019-03-24T06:38:26.765Z,8.17
2019-03-24T06:40:58.750Z,8.33
2019-03-24T06:43:31.723Z,8.39
2019-03-24T06:46:06.769Z,8.79
2019-03-24T06:48:39.722Z,8.61
2019-03-24T06:51:11.542Z,8.79
2019-03-24T06:53:43.363Z,8.80
2019-03-24T06:56:15.425Z,9.10
2019-03-24T06:58:47.353Z,9.25
2019-03-24T07:01:19.163Z,9.39
2019-03-24T07:03:52.152Z,9.49
2019-03-24T07:06:24.136Z,9.63
2019-03-24T07:08:56.080Z,9.76
2019-03-24T07:11:28.031Z,9.68
2019-03-24T07:13:59.975Z,9.84
2019-03-24T07:16:32.028Z,10.20
2019-03-24T07:19:03.850Z,10.05
2019-03-24T07:21:35.852Z,10.29
2019-03-24T07:24:07.763Z,10.11
2019-03-24T07:26:39.611Z,10.41
2019-03-24T07:29:11.576Z,10.38
2019-03-24T07:31:43.744Z,10.41
2019-03-24T07:34:16.231Z,10.12
2019-03-24T07:36:48.255Z,10.68
2019-03-24T07:39:20.229Z,10.74
2019-03-24T07:41:52.218Z,10.61
2019-03-24T07:44:25.197Z,10.61
2019-03-24T07:46:57.124Z,10.58
2019-03-24T07:49:29.162Z,11.17
2019-03-24T07:52:01.083Z,11.54
2019-03-24T07:54:32.920Z,11.26
2019-03-24T07:57:05.088Z,11.70
2019-03-24T07:59:36.985Z,11.79
2019-03-24T08:02:08.898Z,11.67
2019-03-24T08:04:40.898Z,11.91
2019-03-24T08:07:12.904Z,11.94
2019-03-24T08:09:44.740Z,12.04
2019-03-24T08:12:16.586Z,11.42
2019-03-24T08:14:48.536Z,11.60
2019-03-24T08:17:20.439Z,11.82
2019-03-24T08:19:52.252Z,11.95
2019-03-24T08:22:24.226Z,12.36
2019-03-24T08:24:56.181Z,12.43
2019-03-24T08:27:28.053Z,12.11
2019-03-24T08:30:00.116Z,12.93
2019-03-24T08:32:32.283Z,12.53
2019-03-24T08:35:04.197Z,12.34
2019-03-24T08:37:36.195Z,12.62
2019-03-24T08:40:08.808Z,12.87
2019-03-24T08:42:40.711Z,13.14
2019-03-24T08:45:21.017Z,12.96
2019-03-24T08:47:52.853Z,13.19
2019-03-24T08:50:24.653Z,13.87
2019-03-24T08:52:56.826Z,13.59
2019-03-24T08:55:28.653Z,14.27
2019-03-24T08:58:00.554Z,14.50
2019-03-24T09:00:32.393Z,14.49
2019-03-24T09:03:04.467Z,13.84
2019-03-24T09:05:36.379Z,13.59
2019-03-24T09:08:08.262Z,14.52
2019-03-24T09:10:40.145Z,14.81
2019-03-24T09:13:12.719Z,14.89
2019-03-24T09:15:44.690Z,14.78
2019-03-24T09:18:16.563Z,14.67
2019-03-24T09:20:48.595Z,14.20
2019-03-24T09:23:20.514Z,14.37
2019-03-24T09:25:52.771Z,14.27
2019-03-24T09:28:24.659Z,14.18
2019-03-24T09:30:56.524Z,14.03
2019-03-24T09:33:28.439Z,14.66
2019-03-24T09:36:00.258Z,14.76
2019-03-24T09:38:32.149Z,14.84
2019-03-24T09:41:04.201Z,15.30
2019-03-24T09:43:37.194Z,15.47
2019-03-24T09:46:09.268Z,15.51
2019-03-24T09:48:41.115Z,15.52
2019-03-24T09:51:14.094Z,15.43
2019-03-24T09:53:46.163Z,14.99
2019-03-24T09:56:18.130Z,14.98
2019-03-24T09:58:50.067Z,15.33
2019-03-24T10:01:22.210Z,15.08
2019-03-24T10:03:54.235Z,15.34
2019-03-24T10:06:26.210Z,15.49
2019-03-24T10:08:58.190Z,15.07
2019-03-24T10:11:30.101Z,15.62
2019-03-24T10:14:02.076Z,15.68
2019-03-24T10:16:34.062Z,15.19
2019-03-24T10:19:13.969Z,15.62
2019-03-24T10:21:39.490Z,16.11
2019-03-24T10:24:11.385Z,15.70
2019-03-24T10:26:43.348Z,15.63
2019-03-24T10:29:15.180Z,15.74
2019-03-24T10:31:47.291Z,16.00
2019-03-24T10:34:19.191Z,16.19
2019-03-24T10:36:51.003Z,15.70
2019-03-24T10:39:22.915Z,16.21
2019-03-24T10:41:54.895Z,16.55
2019-03-24T10:44:26.885Z,16.56
2019-03-24T10:46:58.841Z,16.82
2019-03-24T10:49:30.768Z,17.14
2019-03-24T10:52:02.598Z,16.73
2019-03-24T10:54:34.506Z,16.98
2019-03-24T10:57:06.504Z,17.16
2019-03-24T10:59:38.338Z,16.30
2019-03-24T11:02:10.151Z,16.59
2019-03-24T11:04:42.167Z,16.11
2019-03-24T11:07:14.127Z,16.48
2019-03-24T11:09:46.057Z,16.71
2019-03-24T11:12:19.052Z,16.44
2019-03-24T11:14:50.915Z,16.92
2019-03-24T11:17:23.010Z,16.60
2019-03-24T11:19:54.819Z,16.56
2019-03-24T11:22:26.703Z,16.85
2019-03-24T11:24:58.608Z,16.69
2019-03-24T11:27:30.520Z,17.14
2019-03-24T11:30:02.402Z,17.10
2019-03-24T11:32:34.210Z,17.01
2019-03-24T11:35:06.581Z,17.76
2019-03-24T11:37:38.515Z,17.51
2019-03-24T11:40:11.668Z,17.42
2019-03-24T11:42:43.492Z,17.77
2019-03-24T11:45:16.106Z,17.83
2019-03-24T11:47:48.181Z,17.88
2019-03-24T11:50:20.223Z,17.38
2019-03-24T11:52:52.292Z,17.03
2019-03-24T11:55:24.126Z,17.13
2019-03-24T11:58:05.319Z,17.42
2019-03-24T12:00:37.510Z,16.96
2019-03-24T12:03:09.501Z,16.98
2019-03-24T12:05:41.567Z,16.98
2019-03-24T12:08:13.645Z,17.13
2019-03-24T12:10:45.680Z,17.22
2019-03-24T12:13:17.618Z,17.09
2019-03-24T12:15:49.621Z,16.93
2019-03-24T12:18:21.640Z,16.98
2019-03-24T12:20:53.507Z,17.12
2019-03-24T12:23:25.487Z,17.00
2019-03-24T12:25:57.577Z,17.35
2019-03-24T12:28:29.408Z,17.23
2019-03-24T12:31:01.216Z,17.17
2019-03-24T12:33:33.114Z,17.26
2019-03-24T12:36:05.089Z,18.23
2019-03-24T12:38:37.040Z,17.54
2019-03-24T12:41:08.947Z,17.66
2019-03-24T12:43:40.968Z,17.23
2019-03-24T12:46:13.129Z,17.17
2019-03-24T12:48:44.960Z,17.31
2019-03-24T12:51:16.768Z,17.26
2019-03-24T12:53:48.637Z,17.36
2019-03-24T12:56:20.566Z,17.26
2019-03-24T12:58:52.592Z,17.06
2019-03-24T13:01:24.480Z,17.72
2019-03-24T13:03:56.525Z,17.76
2019-03-24T13:06:28.359Z,18.02
2019-03-24T13:09:00.208Z,17.50
2019-03-24T13:11:32.185Z,17.50
2019-03-24T13:14:04.115Z,17.34
2019-03-24T13:16:36.024Z,17.44
2019-03-24T13:19:07.946Z,17.85
2019-03-24T13:21:40.239Z,18.04
2019-03-24T13:24:12.351Z,17.70
2019-03-24T13:26:44.155Z,17.36
2019-03-24T13:29:16.329Z,17.48
2019-03-24T13:31:48.980Z,17.51
2019-03-24T13:34:21.091Z,17.37
2019-03-24T13:36:53.161Z,17.94
2019-03-24T13:39:25.086Z,17.15
2019-03-24T13:41:56.959Z,17.42
2019-03-24T13:44:29.133Z,17.48
2019-03-24T13:47:02.135Z,17.66
2019-03-24T13:49:34.000Z,17.27
2019-03-24T13:52:05.950Z,17.44
2019-03-24T13:54:38.008Z,17.74
2019-03-24T13:57:10.158Z,17.55
2019-03-24T13:59:42.146Z,17.63
2019-03-24T14:02:14.089Z,17.88
2019-03-24T14:04:47.539Z,17.67
2019-03-24T14:07:20.532Z,17.57
2019-03-24T14:09:53.428Z,17.42
2019-03-24T14:12:25.265Z,17.58
2019-03-24T14:14:57.344Z,17.37
2019-03-24T14:17:29.269Z,17.25
2019-03-24T14:20:01.448Z,17.38
2019-03-24T14:22:33.471Z,17.64
2019-03-24T14:25:06.090Z,17.75
2019-03-24T14:27:38.388Z,17.39
2019-03-24T14:30:12.044Z,17.91
2019-03-24T14:32:43.872Z,17.54
2019-03-24T14:35:15.965Z,17.39
2019-03-24T14:37:47.856Z,17.42
2019-03-24T14:40:19.687Z,17.94
2019-03-24T14:42:51.635Z,17.51
2019-03-24T14:45:23.557Z,17.27
2019-03-24T14:47:55.533Z,17.35
2019-03-24T14:50:27.525Z,17.90
2019-03-24T14:52:59.425Z,17.26
2019-03-24T14:55:32.399Z,17.16
2019-03-24T14:58:04.670Z,17.32
2019-03-24T15:00:39.121Z,17.20
2019-03-24T15:03:11.135Z,17.20
2019-03-24T15:05:43.424Z,17.43
2019-03-24T15:08:15.573Z,17.52
2019-03-24T15:10:47.494Z,17.28
2019-03-24T15:13:19.396Z,17.01
2019-03-24T15:15:51.429Z,17.29
2019-03-24T15:18:23.275Z,17.22
2019-03-24T15:21:05.134Z,17.00
2019-03-24T15:23:28.940Z,17.05
2019-03-24T15:26:00.968Z,17.01
2019-03-24T15:28:33.082Z,17.01
2019-03-24T15:31:04.968Z,16.98
2019-03-24T15:33:37.008Z,16.98
2019-03-24T15:36:08.821Z,17.07
2019-03-24T15:38:43.608Z,17.20
2019-03-24T15:41:18.153Z,17.16
2019-03-24T15:43:49.187Z,17.33
2019-03-24T15:46:21.179Z,16.94
2019-03-24T15:48:53.088Z,16.98
2019-03-24T15:51:24.899Z,16.90
2019-03-24T15:53:56.866Z,16.65
2019-03-24T15:56:28.737Z,16.62
2019-03-24T15:59:00.564Z,16.71
2019-03-24T16:01:33.555Z,16.75
2019-03-24T16:04:05.525Z,16.57
2019-03-24T16:06:37.441Z,16.52
2019-03-24T16:09:10.073Z,16.53
2019-03-24T16:11:42.188Z,16.53
2019-03-24T16:14:14.065Z,16.44
2019-03-24T16:16:45.949Z,16.30
2019-03-24T16:19:17.917Z,16.43
2019-03-24T16:21:49.756Z,16.27
2019-03-24T16:24:21.603Z,16.27
2019-03-24T16:26:53.493Z,16.15
2019-03-24T16:29:25.478Z,16.33
2019-03-24T16:31:57.387Z,16.16
2019-03-24T16:34:29.207Z,16.19
2019-03-24T16:37:01.235Z,16.20
2019-03-24T16:39:33.110Z,16.19
2019-03-24T16:42:05.095Z,15.95
2019-03-24T16:44:36.907Z,15.82
2019-03-24T16:47:09.074Z,15.67
2019-03-24T16:49:41.176Z,15.85
2019-03-24T16:52:13.193Z,15.76
2019-03-24T16:54:45.177Z,15.53
2019-03-24T16:57:17.045Z,15.69
2019-03-24T16:59:48.856Z,15.69
2019-03-24T17:02:20.688Z,15.69
2019-03-24T17:04:52.609Z,15.76
2019-03-24T17:07:24.514Z,15.59
2019-03-24T17:09:56.346Z,15.62
2019-03-24T17:12:29.251Z,15.59
2019-03-24T17:15:01.094Z,15.58
2019-03-24T17:17:33.586Z,15.54
2019-03-24T17:20:05.978Z,15.43
2019-03-24T17:22:38.182Z,15.48
2019-03-24T17:25:10.199Z,15.53
2019-03-24T17:27:42.019Z,15.38
2019-03-24T17:30:14.313Z,15.53
2019-03-24T17:32:46.262Z,15.35
2019-03-24T17:35:18.140Z,15.35
2019-03-24T17:37:50.161Z,15.33
2019-03-24T17:40:22.047Z,15.24
2019-03-24T17:42:54.019Z,15.06
2019-03-24T17:45:26.002Z,15.02
2019-03-24T17:47:57.980Z,14.66
2019-03-24T17:50:29.951Z,14.64
2019-03-24T17:53:01.749Z,14.51
2019-03-24T17:55:33.628Z,14.46
2019-03-24T17:58:05.664Z,14.42
2019-03-24T18:00:41.159Z,14.40
2019-03-24T18:03:13.532Z,14.29
2019-03-24T18:05:45.523Z,14.01
2019-03-24T18:08:17.357Z,14.03
2019-03-24T18:10:49.161Z,13.83
2019-03-24T18:13:22.081Z,13.81
2019-03-24T18:15:54.148Z,13.72
2019-03-24T18:18:26.236Z,13.65
2019-03-24T18:20:58.133Z,13.63
2019-03-24T18:23:30.045Z,13.59
2019-03-24T18:26:01.954Z,13.49
2019-03-24T18:28:33.761Z,13.38
2019-03-24T18:31:05.905Z,13.31
2019-03-24T18:33:37.870Z,13.26
2019-03-24T18:36:09.838Z,13.19
2019-03-24T18:38:41.714Z,13.17
2019-03-24T18:41:13.755Z,13.15
2019-03-24T18:43:45.667Z,13.12
2019-03-24T18:46:17.510Z,13.16
2019-03-24T18:48:49.630Z,13.03
2019-03-24T18:51:21.611Z,13.02
2019-03-24T18:53:54.156Z,12.88
2019-03-24T18:56:25.959Z,12.67
2019-03-24T18:58:57.844Z,12.49
2019-03-24T19:01:29.869Z,12.45
2019-03-24T19:04:01.780Z,12.44
2019-03-24T19:06:33.596Z,12.49
2019-03-24T19:09:08.204Z,12.25
2019-03-24T19:11:40.353Z,12.14
2019-03-24T19:14:12.319Z,12.15
2019-03-24T19:16:44.297Z,12.07
2019-03-24T19:19:16.257Z,12.09
2019-03-24T19:21:48.147Z,12.06
2019-03-24T19:24:20.155Z,11.92
2019-03-24T19:26:52.071Z,11.90
2019-03-24T19:29:24.046Z,11.98
2019-03-24T19:31:56.002Z,11.81
2019-03-24T19:34:27.883Z,11.85
2019-03-24T19:37:00.228Z,11.85
2019-03-24T19:39:32.485Z,11.85
2019-03-24T19:42:04.492Z,11.80
2019-03-24T19:44:36.644Z,11.85
2019-03-24T19:47:08.655Z,11.83
2019-03-24T19:49:40.581Z,11.81
2019-03-24T19:52:12.496Z,11.74
2019-03-24T19:54:44.300Z,11.65
2019-03-24T19:57:16.277Z,11.71
2019-03-24T19:59:48.264Z,11.60
2019-03-24T20:02:20.123Z,11.53
2019-03-24T20:04:52.014Z,11.56
2019-03-24T20:07:23.958Z,11.57
2019-03-24T20:09:55.888Z,11.43
2019-03-24T20:12:27.890Z,11.48
2019-03-24T20:14:59.758Z,11.23
2019-03-24T20:17:31.839Z,11.34
2019-03-24T20:20:04.007Z,11.16
2019-03-24T20:22:36.148Z,11.19
2019-03-24T20:25:08.550Z,11.21
2019-03-24T20:27:40.619Z,11.26
2019-03-24T20:30:13.447Z,11.15
2019-03-24T20:32:45.353Z,11.04
2019-03-24T20:35:17.383Z,11.11
2019-03-24T20:37:49.358Z,11.15
2019-03-24T20:40:21.343Z,11.09
2019-03-24T20:42:53.259Z,10.95
2019-03-24T20:45:25.231Z,11.01
2019-03-24T20:47:57.348Z,11.00
2019-03-24T20:50:29.529Z,10.99
2019-03-24T20:53:05.607Z,10.75
2019-03-24T20:55:35.475Z,10.85
2019-03-24T20:58:07.450Z,10.76
2019-03-24T21:00:39.816Z,10.78
2019-03-24T21:03:12.199Z,10.80
2019-03-24T21:05:44.096Z,10.71
2019-03-24T21:08:16.043Z,10.89
2019-03-24T21:10:49.394Z,10.84
2019-03-24T21:13:21.300Z,10.67
2019-03-24T21:15:53.269Z,10.56
2019-03-24T21:18:25.097Z,10.91
2019-03-24T21:20:57.015Z,10.89
2019-03-24T21:23:29.955Z,10.88
2019-03-24T21:26:03.410Z,11.27
2019-03-24T21:28:35.242Z,11.49
2019-03-24T21:31:07.298Z,11.46
2019-03-24T21:33:39.498Z,11.41
2019-03-24T21:36:11.476Z,11.38
2019-03-24T21:38:43.475Z,11.38
2019-03-24T21:41:15.329Z,11.47
2019-03-24T21:43:47.178Z,11.65
2019-03-24T21:46:19.259Z,11.38
2019-03-24T21:48:51.237Z,11.12
2019-03-24T21:51:23.240Z,11.39
2019-03-24T21:53:55.262Z,11.25
2019-03-24T21:56:27.258Z,11.18
2019-03-24T21:58:59.087Z,10.97
2019-03-24T22:01:31.102Z,10.93
2019-03-24T22:04:03.054Z,10.86
2019-03-24T22:06:35.146Z,10.25
2019-03-24T22:09:09.393Z,9.72
2019-03-24T22:11:41.427Z,9.57
2019-03-24T22:14:15.534Z,10.29
2019-03-24T22:16:47.201Z,10.52
2019-03-24T22:19:19.148Z,10.53
2019-03-24T22:21:50.994Z,10.48
2019-03-24T22:24:22.908Z,10.66
2019-03-24T22:26:55.930Z,10.61
2019-03-24T22:29:27.931Z,10.73
2019-03-24T22:32:00.178Z,10.37
2019-03-24T22:34:32.080Z,10.50
2019-03-24T22:37:15.204Z,10.43
2019-03-24T22:39:37.658Z,10.52
2019-03-24T22:42:09.516Z,10.31
2019-03-24T22:44:41.441Z,10.19
2019-03-24T22:47:13.385Z,10.43
2019-03-24T22:49:45.244Z,10.46
2019-03-24T22:52:17.288Z,10.41
2019-03-24T22:54:49.148Z,10.12
2019-03-24T22:57:21.259Z,10.20
2019-03-24T22:59:53.171Z,9.91
2019-03-24T23:02:25.390Z,9.87
2019-03-24T23:04:57.591Z,10.17
2019-03-24T23:07:29.898Z,10.22
2019-03-24T23:10:01.831Z,9.75
2019-03-24T23:12:35.343Z,10.24
2019-03-24T23:15:07.883Z,10.40
2019-03-24T23:17:39.886Z,10.45
2019-03-24T23:20:12.323Z,10.62
2019-03-24T23:22:44.490Z,10.50
2019-03-24T23:25:16.489Z,9.83
2019-03-24T23:27:48.644Z,9.56
2019-03-24T23:30:21.169Z,10.40
2019-03-24T23:32:53.247Z,10.49
2019-03-24T23:35:25.133Z,10.37
2019-03-24T23:37:58.392Z,9.66
2019-03-24T23:40:30.301Z,9.54
2019-03-24T23:43:02.576Z,9.56
2019-03-24T23:45:34.630Z,9.24
2019-03-24T23:48:06.877Z,9.59
2019-03-24T23:50:38.793Z,10.11
2019-03-24T23:53:10.849Z,10.26
2019-03-24T23:55:42.973Z,10.15
2019-03-24T23:58:14.918Z,10.30
